Edzard Schulte — 2CVX9 — position and weather

sailwx.info

Track history (hours):
 
Tides and Currents Weather Stations Pressure Air Temp Water Temp Dewpoint Dewpoint Depression Visibility Wind Speed Wind Dir Waves Ship Positions

Edzard Schulte

Last reported at 2017-Jan-17 12:33 UTC. Time now 2017-Jan-17 12:51 UTC.
Position N 54°18' E 000°02'.

Length 145 m; draft 9.3 m.

Type: Tanker. MMSI: 235076245.

Date/timePositionNaut miles runAvg speedWind from/ knotsBaromVisibWave heightAir tempDewpointWater temp
2017-Jan-17 12:33N 54°18' E 000°02'1313.1
2017-Jan-17 11:33N 54°10' E 000°19'15112.3
2017-Jan-16 23:17N 52°40' E 003°44'912.4
2017-Jan-16 22:33N 52°37' E 003°58'1111.2
2017-Jan-16 21:33N 52°31' E 004°13'1110.7
2017-Jan-16 20:33N 52°28' E 004°30'4 3.9
2017-Jan-16 19:33N 52°28' E 004°37'5 5.3
2017-Jan-16 18:33N 52°26' E 004°45'3 2.6
2017-Jan-16 17:16N 52°24' E 004°50'0 0.0
2017-Jan-16 16:28N 52°24' E 004°50'0 0.0
2017-Jan-16 15:31N 52°24' E 004°50'0 0.0
2017-Jan-16 14:31N 52°24' E 004°50'0 0.0
2017-Jan-16 13:25N 52°24' E 004°50'0 0.0
2017-Jan-16 12:31N 52°24' E 004°50'0 0.0
2017-Jan-16 11:16N 52°24' E 004°50'0 0.0
2017-Jan-16 10:31N 52°24' E 004°50'0 0.0
2017-Jan-16 09:31N 52°24' E 004°50'0 0.0
2017-Jan-16 08:25N 52°24' E 004°50'0 0.0
2017-Jan-16 07:28N 52°24' E 004°50'0 0.0
2017-Jan-16 06:28N 52°24' E 004°50'0 0.0
2017-Jan-16 05:25N 52°24' E 004°50'0 0.0
2017-Jan-16 04:22N 52°24' E 004°50'0 0.0
2017-Jan-16 03:28N 52°24' E 004°50'0 0.0
2017-Jan-16 02:28N 52°24' E 004°50'0 0.0
2017-Jan-16 01:31N 52°24' E 004°50'0 0.0
2017-Jan-16 00:19N 52°24' E 004°50'0 0.0
2017-Jan-15 23:28N 52°24' E 004°50'0 0.0
2017-Jan-15 22:31N 52°24' E 004°50'0 0.0
2017-Jan-15 21:31N 52°24' E 004°50'0 0.0
2017-Jan-15 20:31N 52°24' E 004°50'0 0.0
2017-Jan-15 19:31N 52°24' E 004°50'0 0.0
2017-Jan-15 18:31N 52°24' E 004°50'0 0.0
2017-Jan-15 17:25N 52°24' E 004°50'0 0.0
2017-Jan-15 16:25N 52°24' E 004°50'0 0.0
2017-Jan-15 15:19N 52°24' E 004°50'0 0.0
2017-Jan-15 14:31N 52°24' E 004°50'0 0.0
2017-Jan-15 13:25N 52°24' E 004°50'0 0.0
2017-Jan-15 12:25N 52°24' E 004°50'0 0.0
2017-Jan-15 11:28N 52°24' E 004°50'0 0.0
2017-Jan-15 10:28N 52°24' E 004°50'1 1.0
2017-Jan-15 09:33N 52°25' E 004°49'8 7.8
2017-Jan-15 08:33N 52°28' E 004°37'1 1.3
2017-Jan-15 07:33N 52°28' E 004°35'8 7.7
2017-Jan-15 06:33N 52°29' E 004°22'4 4.1
2017-Jan-15 05:28N 52°31' E 004°16'0 0.0
2017-Jan-15 04:31N 52°31' E 004°16'0 0.1
2017-Jan-15 03:28N 52°31' E 004°16'0 0.1
2017-Jan-15 02:31N 52°31' E 004°16'0 0.0
2017-Jan-15 01:10N 52°31' E 004°16'0 0.0
2017-Jan-15 00:28N 52°31' E 004°16'0 0.0
2017-Jan-14 23:10N 52°31' E 004°16'0 0.0
2017-Jan-14 21:13N 52°31' E 004°16'0 0.0
2017-Jan-14 20:31N 52°31' E 004°16'4 3.7
2017-Jan-14 19:33N 52°33' E 004°11'5 2.5
2017-Jan-14 17:24N 52°34' E 004°02'1 1.5
2017-Jan-14 16:30N 52°33' E 004°02'3 0.7
2017-Jan-14 11:26N 52°35' E 003°59'1 0.9
2017-Jan-14 10:33N 52°36' E 004°00'1 1.1
2017-Jan-14 09:26N 52°35' E 004°02'4 3.3
2017-Jan-14 08:13N 52°39' E 004°03'4 5.9
2017-Jan-14 07:33N 52°43' E 004°02'6 5.2
2017-Jan-14 06:22N 52°49' E 003°60'4 0.5
2017-Jan-13 22:06N 52°45' E 004°02'1 0.7
2017-Jan-13 20:21N 52°44' E 004°04'1 0.8
2017-Jan-13 19:32N 52°44' E 004°05'1 0.6
2017-Jan-13 18:33N 52°44' E 004°05'1 1.0
2017-Jan-13 17:32N 52°45' E 004°04'6 0.7
2017-Jan-13 08:33N 52°38' E 004°02'11 0.7
2017-Jan-12 17:33N 52°49' E 003°58'4 3.6
2017-Jan-12 16:32N 52°46' E 004°03'3 3.4
2017-Jan-12 15:33N 52°43' E 004°04'7 5.8
2017-Jan-12 14:23N 52°37' E 003°59'39 9.3
2017-Jan-12 10:08N 53°06' E 003°14'813.1
2017-Jan-12 09:33N 53°13' E 003°09'1211.5
2017-Jan-12 08:33N 53°15' E 002°50'88 2.7
2017-Jan-11 00:24N 51°50' E 003°24'6 0.4
2017-Jan-10 07:33N 51°44' E 003°19'8 8.2
2017-Jan-10 06:33N 51°37' E 003°23'10 9.6
2017-Jan-10 05:33N 51°28' E 003°31'1010.4
2017-Jan-10 04:33N 51°22' E 003°44'2 1.9
2017-Jan-10 03:32N 51°21' E 003°46'0 0.0
2017-Jan-10 01:08N 51°21' E 003°46'0 0.0
2017-Jan-10 00:26N 51°21' E 003°46'0 0.0
2017-Jan-09 21:31N 51°21' E 003°46'0 0.0
2017-Jan-09 20:31N 51°21' E 003°46'0 0.0
2017-Jan-09 16:25N 51°21' E 003°46'0 0.0
2017-Jan-09 14:19N 51°21' E 003°46'0 0.0
2017-Jan-09 11:31N 51°21' E 003°46'0 0.0
2017-Jan-09 10:31N 51°21' E 003°46'0 0.0
2017-Jan-09 07:13N 51°21' E 003°46'0 0.0
2017-Jan-09 04:25N 51°21' E 003°46'0 0.0
2017-Jan-09 03:13N 51°21' E 003°46'0 0.0
2017-Jan-08 22:25N 51°21' E 003°46'0 0.0
2017-Jan-08 12:19N 51°21' E 003°46'0 0.0
2017-Jan-08 09:23N 51°21' E 003°46'2 1.9
2017-Jan-08 08:33N 51°22' E 003°44'10 9.5
2017-Jan-08 07:30N 51°25' E 003°29'1212.9
2017-Jan-08 06:33N 51°24' E 003°10'1111.0
2017-Jan-08 05:33N 51°22' E 002°53'9 9.3
2017-Jan-08 04:33N 51°23' E 002°38'2 1.5
2017-Jan-08 03:31N 51°24' E 002°36'0 0.0
2017-Jan-08 02:31N 51°24' E 002°36'0 0.0
2017-Jan-08 01:22N 51°24' E 002°36'0 0.0
2017-Jan-08 00:31N 51°24' E 002°36'0 0.1
2017-Jan-07 23:31N 51°24' E 002°36'0 0.0
2017-Jan-07 22:31N 51°24' E 002°36'0 0.0
2017-Jan-07 21:31N 51°24' E 002°36'0 0.0
2017-Jan-07 20:31N 51°24' E 002°36'0 0.0
2017-Jan-07 19:31N 51°24' E 002°36'0 0.1
2017-Jan-07 18:31N 51°24' E 002°36'0 0.1
2017-Jan-07 17:31N 51°24' E 002°36'0 0.1
2017-Jan-07 16:28N 51°24' E 002°36'0 0.0
2017-Jan-07 15:28N 51°24' E 002°36'0 0.0
2017-Jan-07 14:31N 51°24' E 002°36'0 0.0
2017-Jan-07 13:31N 51°24' E 002°36'  
Track history (hours):
 
Tides and Currents Weather Stations Pressure Air Temp Water Temp Dewpoint Dewpoint Depression Visibility Wind Speed Wind Dir Waves Ship Positions

Edzard Schulte

Last reported at 2017-Jan-17 12:33 UTC. Time now 2017-Jan-17 12:51 UTC.
Position N 54°18' E 000°02'.

Length 145 m; draft 9.3 m.

Type: Tanker. MMSI: 235076245.

Date/timePositionNaut miles runAvg speedWind from/ knotsBaromVisibWave heightAir tempDewpointWater temp
2017-Jan-17 12:33N 54°18' E 000°02'1313.1
2017-Jan-17 11:33N 54°10' E 000°19'15112.3
2017-Jan-16 23:17N 52°40' E 003°44'912.4
2017-Jan-16 22:33N 52°37' E 003°58'1111.2
2017-Jan-16 21:33N 52°31' E 004°13'1110.7
2017-Jan-16 20:33N 52°28' E 004°30'4 3.9
2017-Jan-16 19:33N 52°28' E 004°37'5 5.3
2017-Jan-16 18:33N 52°26' E 004°45'3 2.6
2017-Jan-16 17:16N 52°24' E 004°50'0 0.0
2017-Jan-16 16:28N 52°24' E 004°50'0 0.0
2017-Jan-16 15:31N 52°24' E 004°50'0 0.0
2017-Jan-16 14:31N 52°24' E 004°50'0 0.0
2017-Jan-16 13:25N 52°24' E 004°50'0 0.0
2017-Jan-16 12:31N 52°24' E 004°50'0 0.0
2017-Jan-16 11:16N 52°24' E 004°50'0 0.0
2017-Jan-16 10:31N 52°24' E 004°50'0 0.0
2017-Jan-16 09:31N 52°24' E 004°50'0 0.0
2017-Jan-16 08:25N 52°24' E 004°50'0 0.0
2017-Jan-16 07:28N 52°24' E 004°50'0 0.0
2017-Jan-16 06:28N 52°24' E 004°50'0 0.0
2017-Jan-16 05:25N 52°24' E 004°50'0 0.0
2017-Jan-16 04:22N 52°24' E 004°50'0 0.0
2017-Jan-16 03:28N 52°24' E 004°50'0 0.0
2017-Jan-16 02:28N 52°24' E 004°50'0 0.0
2017-Jan-16 01:31N 52°24' E 004°50'0 0.0
2017-Jan-16 00:19N 52°24' E 004°50'0 0.0
2017-Jan-15 23:28N 52°24' E 004°50'0 0.0
2017-Jan-15 22:31N 52°24' E 004°50'0 0.0
2017-Jan-15 21:31N 52°24' E 004°50'0 0.0
2017-Jan-15 20:31N 52°24' E 004°50'0 0.0
2017-Jan-15 19:31N 52°24' E 004°50'0 0.0
2017-Jan-15 18:31N 52°24' E 004°50'0 0.0
2017-Jan-15 17:25N 52°24' E 004°50'0 0.0
2017-Jan-15 16:25N 52°24' E 004°50'0 0.0
2017-Jan-15 15:19N 52°24' E 004°50'0 0.0
2017-Jan-15 14:31N 52°24' E 004°50'0 0.0
2017-Jan-15 13:25N 52°24' E 004°50'0 0.0
2017-Jan-15 12:25N 52°24' E 004°50'0 0.0
2017-Jan-15 11:28N 52°24' E 004°50'0 0.0
2017-Jan-15 10:28N 52°24' E 004°50'1 1.0
2017-Jan-15 09:33N 52°25' E 004°49'8 7.8
2017-Jan-15 08:33N 52°28' E 004°37'1 1.3
2017-Jan-15 07:33N 52°28' E 004°35'8 7.7
2017-Jan-15 06:33N 52°29' E 004°22'4 4.1
2017-Jan-15 05:28N 52°31' E 004°16'0 0.0
2017-Jan-15 04:31N 52°31' E 004°16'0 0.1
2017-Jan-15 03:28N 52°31' E 004°16'0 0.1
2017-Jan-15 02:31N 52°31' E 004°16'0 0.0
2017-Jan-15 01:10N 52°31' E 004°16'0 0.0
2017-Jan-15 00:28N 52°31' E 004°16'0 0.0
2017-Jan-14 23:10N 52°31' E 004°16'0 0.0
2017-Jan-14 21:13N 52°31' E 004°16'0 0.0
2017-Jan-14 20:31N 52°31' E 004°16'4 3.7
2017-Jan-14 19:33N 52°33' E 004°11'5 2.5
2017-Jan-14 17:24N 52°34' E 004°02'1 1.5
2017-Jan-14 16:30N 52°33' E 004°02'3 0.7
2017-Jan-14 11:26N 52°35' E 003°59'1 0.9
2017-Jan-14 10:33N 52°36' E 004°00'1 1.1
2017-Jan-14 09:26N 52°35' E 004°02'4 3.3
2017-Jan-14 08:13N 52°39' E 004°03'4 5.9
2017-Jan-14 07:33N 52°43' E 004°02'6 5.2
2017-Jan-14 06:22N 52°49' E 003°60'4 0.5
2017-Jan-13 22:06N 52°45' E 004°02'1 0.7
2017-Jan-13 20:21N 52°44' E 004°04'1 0.8
2017-Jan-13 19:32N 52°44' E 004°05'1 0.6
2017-Jan-13 18:33N 52°44' E 004°05'1 1.0
2017-Jan-13 17:32N 52°45' E 004°04'6 0.7
2017-Jan-13 08:33N 52°38' E 004°02'11 0.7
2017-Jan-12 17:33N 52°49' E 003°58'4 3.6
2017-Jan-12 16:32N 52°46' E 004°03'3 3.4
2017-Jan-12 15:33N 52°43' E 004°04'7 5.8
2017-Jan-12 14:23N 52°37' E 003°59'39 9.3
2017-Jan-12 10:08N 53°06' E 003°14'813.1
2017-Jan-12 09:33N 53°13' E 003°09'1211.5
2017-Jan-12 08:33N 53°15' E 002°50'88 2.7
2017-Jan-11 00:24N 51°50' E 003°24'6 0.4
2017-Jan-10 07:33N 51°44' E 003°19'8 8.2
2017-Jan-10 06:33N 51°37' E 003°23'10 9.6
2017-Jan-10 05:33N 51°28' E 003°31'1010.4
2017-Jan-10 04:33N 51°22' E 003°44'2 1.9
2017-Jan-10 03:32N 51°21' E 003°46'0 0.0
2017-Jan-10 01:08N 51°21' E 003°46'0 0.0
2017-Jan-10 00:26N 51°21' E 003°46'0 0.0
2017-Jan-09 21:31N 51°21' E 003°46'0 0.0
2017-Jan-09 20:31N 51°21' E 003°46'0 0.0
2017-Jan-09 16:25N 51°21' E 003°46'0 0.0
2017-Jan-09 14:19N 51°21' E 003°46'0 0.0
2017-Jan-09 11:31N 51°21' E 003°46'0 0.0
2017-Jan-09 10:31N 51°21' E 003°46'0 0.0
2017-Jan-09 07:13N 51°21' E 003°46'0 0.0
2017-Jan-09 04:25N 51°21' E 003°46'0 0.0
2017-Jan-09 03:13N 51°21' E 003°46'0 0.0
2017-Jan-08 22:25N 51°21' E 003°46'0 0.0
2017-Jan-08 12:19N 51°21' E 003°46'0 0.0
2017-Jan-08 09:23N 51°21' E 003°46'2 1.9
2017-Jan-08 08:33N 51°22' E 003°44'10 9.5
2017-Jan-08 07:30N 51°25' E 003°29'1212.9
2017-Jan-08 06:33N 51°24' E 003°10'1111.0
2017-Jan-08 05:33N 51°22' E 002°53'9 9.3
2017-Jan-08 04:33N 51°23' E 002°38'2 1.5
2017-Jan-08 03:31N 51°24' E 002°36'0 0.0
2017-Jan-08 02:31N 51°24' E 002°36'0 0.0
2017-Jan-08 01:22N 51°24' E 002°36'0 0.0
2017-Jan-08 00:31N 51°24' E 002°36'0 0.1
2017-Jan-07 23:31N 51°24' E 002°36'0 0.0
2017-Jan-07 22:31N 51°24' E 002°36'0 0.0
2017-Jan-07 21:31N 51°24' E 002°36'0 0.0
2017-Jan-07 20:31N 51°24' E 002°36'0 0.0
2017-Jan-07 19:31N 51°24' E 002°36'0 0.1
2017-Jan-07 18:31N 51°24' E 002°36'0 0.1
2017-Jan-07 17:31N 51°24' E 002°36'0 0.1
2017-Jan-07 16:28N 51°24' E 002°36'0 0.0
2017-Jan-07 15:28N 51°24' E 002°36'0 0.0
2017-Jan-07 14:31N 51°24' E 002°36'0 0.0
2017-Jan-07 13:31N 51°24' E 002°36'  

Dump ship's entire track history